Reek, Netherlands
Current Conditions -  °F | °C
As of 5:05 PM on Wednesday 28 Jan 2015 (Local Time) from EHVK Reporting Station
Thunderstorm Thunderstorm  
Wind Chill: 33°   Ceiling: 1100
Heat Index: 43°   Visibility: 3mi
Dew Point: 39°   Wind: 24mph
Humidity: 87%   Direction: 280°W
Pressure: 29.38"   Gusts: 39mph
Location:  51.75°N, 5.68°E
Report Text: EHVK 281605Z AUTO 28021G34KT 4900 TSRA FEW007 SCT008 BKN011 06/04 Q0995 REDZ GRN 25025G45KT 3000 TSRA BKN006 BKN012CB BECMG FM1630 28014G30KT 9999 NSW BKN015
Loading
Personal Weather Stations






























Interactive Weather Map New forecast layout! Learn more

10-Day Weather Forecast

Advertisements
Track Severe Weather on mobile